< Typhoon 195508 1955 Season Typhoon 195510 >
Typhoon 195509 (ELLEN)
General InformationTrack Information on Google Maps || Disaster Info.ResourceGoogle EarthGE AnimationAtom FeedGeoJSON
Detalied Best Track (Time Zone = UTC)
Year Month Day Hour Lat. Long. Pressure (hPa) Wind (kt) Class Image Chart
1955 7 15 06 22.9 153.0 1006 0 2 -- Chart
1955 7 15 12 23.2 152.3 1006 0 2 -- Chart
1955 7 15 18 23.6 151.6 1004 0 2 -- Chart
1955 7 16 00 24.0 150.8 1004 0 9 -- Chart
1955 7 16 06 24.3 150.0 1002 0 9 -- Chart
1955 7 16 12 24.6 149.3 1002 0 9 -- Chart
1955 7 16 18 24.8 148.7 1002 0 9 -- Chart
1955 7 17 00 25.0 148.2 1000 0 9 -- Chart
1955 7 17 06 26.3 146.4 998 0 9 -- Chart
1955 7 17 12 27.7 145.3 998 0 9 -- Chart
1955 7 17 18 29.1 144.1 996 0 9 -- Chart
1955 7 18 00 30.1 142.3 996 0 9 -- Chart
1955 7 18 06 30.4 140.8 994 0 9 -- Chart
1955 7 18 12 30.5 139.2 994 0 9 -- Chart
1955 7 18 18 30.4 137.3 990 0 9 -- Chart
1955 7 19 00 30.4 135.3 985 0 9 -- Chart
1955 7 19 06 30.5 134.5 985 0 9 -- Chart
1955 7 19 12 30.5 133.7 985 0 9 -- Chart
1955 7 19 18 30.6 133.1 985 0 9 -- Chart
1955 7 20 00 30.5 132.4 994 0 9 -- Chart
1955 7 20 06 30.4 132.2 994 0 9 -- Chart
1955 7 20 12 30.3 134.3 994 0 9 -- Chart
1955 7 20 18 30.3 134.7 994 0 9 -- Chart
1955 7 21 00 30.4 136.4 990 0 9 -- Chart
1955 7 21 06 30.6 137.9 990 0 9 -- Chart
1955 7 21 12 30.8 139.5 975 0 9 -- Chart
1955 7 21 18 31.7 140.5 975 0 9 -- Chart
1955 7 22 00 32.7 141.1 970 0 9 -- Chart
1955 7 22 06 33.5 142.5 955 0 9 -- Chart
1955 7 22 12 34.4 143.4 970 0 9 -- Chart
1955 7 22 18 35.9 144.8 980 0 9 -- Chart
1955 7 23 00 37.5 146.0 990 0 9 -- Chart
1955 7 23 06 38.7 148.1 990 0 9 -- Chart
1955 7 23 12 39.6 150.8 990 0 9 -- Chart
1955 7 23 18 40.6 153.3 990 0 9 -- Chart
1955 7 24 00 41.8 155.6 990 0 9 -- Chart
1955 7 24 06 42.0 158.4 995 0 9 -- Chart
1955 7 24 12 42.0 162.0 995 0 9 -- Chart
1955 7 24 18 41.5 167.0 995 0 6 -- Chart
1955 7 25 00 41.5 168.7 995 0 6 -- Chart
1955 7 25 06 41.8 170.0 998 0 6 -- Chart
1955 7 25 12 42.5 171.5 998 0 6 -- Chart
1955 7 25 18 43.0 173.0 998 0 6 -- Chart
1955 7 26 00 44.0 174.5 998 0 6 -- Chart
1955 7 26 06 44.6 176.0 996 0 6 -- Chart
1955 7 26 12 45.0 178.0 995 0 6 -- Chart
1955 7 26 18 46.0 179.5 994 0 6 -- Chart
1955 7 27 00 47.0 179.0 992 0 6 -- Chart
1955 7 27 06 48.0 179.0 992 0 6 -- Chart
1955 7 27 12 48.0 183.0 992 0 6 -- Chart
Japan Meteorological Agency Best Track Data | Correction Date : 1991-07-16
< Typhoon 195508 1955 Season Typhoon 195510 >

Help